createdAt,value
2023-04-07T00:01:23.119Z,26.70
2023-04-07T00:03:52.178Z,27.40
2023-04-07T00:06:21.642Z,23.97
2023-04-07T00:08:50.405Z,24.43
2023-04-07T00:11:21.241Z,27.93
2023-04-07T00:13:49.901Z,24.00
2023-04-07T00:16:21.116Z,30.13
2023-04-07T00:18:50.110Z,26.70
2023-04-07T00:21:21.050Z,25.70
2023-04-07T00:23:49.792Z,27.87
2023-04-07T00:26:20.609Z,25.90
2023-04-07T00:28:50.078Z,26.53
2023-04-07T00:31:21.224Z,30.83
2023-04-07T00:33:50.005Z,26.00
2023-04-07T00:36:21.678Z,26.00
2023-04-07T00:38:50.480Z,30.67
2023-04-07T00:41:20.533Z,32.17
2023-04-07T00:43:50.779Z,28.87
2023-04-07T00:46:22.323Z,28.17
2023-04-07T00:48:51.377Z,28.87
2023-04-07T00:51:22.421Z,29.10
2023-04-07T00:53:51.327Z,32.07
2023-04-07T00:56:22.570Z,30.50
2023-04-07T00:58:51.781Z,30.00
2023-04-07T01:01:26.371Z,28.63
2023-04-07T01:04:01.597Z,30.23
2023-04-07T01:06:35.298Z,26.63
2023-04-07T01:09:11.147Z,29.25
2023-04-07T01:11:44.450Z,27.27
2023-04-07T01:14:22.531Z,32.50
2023-04-07T01:17:03.577Z,35.00
2023-04-07T01:19:37.142Z,34.97
2023-04-07T01:22:12.624Z,27.50
2023-04-07T01:25:06.550Z,30.17
2023-04-07T01:27:43.618Z,30.40
2023-04-07T01:30:15.995Z,32.03
2023-04-07T01:32:50.351Z,29.67
2023-04-07T01:35:22.185Z,28.50
2023-04-07T01:37:52.681Z,34.17
2023-04-07T01:40:22.630Z,30.40
2023-04-07T01:42:52.978Z,35.30
2023-04-07T01:45:23.137Z,35.73
2023-04-07T01:47:53.354Z,31.47
2023-04-07T01:50:23.901Z,34.83
2023-04-07T01:52:53.919Z,32.73
2023-04-07T01:55:24.891Z,36.17
2023-04-07T01:58:06.176Z,33.97
2023-04-07T02:00:36.350Z,36.57
2023-04-07T02:03:20.370Z,33.63
2023-04-07T02:05:54.673Z,34.77
2023-04-07T02:08:30.054Z,32.53
2023-04-07T02:11:03.944Z,35.57
2023-04-07T02:13:44.258Z,33.13
2023-04-07T02:16:17.388Z,35.80
2023-04-07T02:18:48.280Z,34.75
2023-04-07T02:21:19.910Z,34.50
2023-04-07T02:23:48.770Z,39.53
2023-04-07T02:26:19.545Z,30.23
2023-04-07T02:28:48.441Z,35.47
2023-04-07T02:31:21.736Z,33.70
2023-04-07T02:33:50.552Z,36.03
2023-04-07T02:36:22.481Z,38.13
2023-04-07T02:38:51.223Z,39.40
2023-04-07T02:41:20.922Z,35.00
2023-04-07T02:43:49.693Z,40.03
2023-04-07T02:46:19.762Z,35.40
2023-04-07T02:48:48.591Z,36.30
2023-04-07T02:51:17.291Z,34.47
2023-04-07T02:53:48.262Z,34.53
2023-04-07T02:56:19.196Z,37.77
2023-04-07T02:58:47.974Z,38.00
2023-04-07T03:01:19.053Z,39.27
2023-04-07T03:03:48.139Z,40.53
2023-04-07T03:06:21.237Z,37.50
2023-04-07T03:09:13.588Z,38.13
2023-04-07T03:11:42.627Z,42.83
2023-04-07T03:14:12.051Z,44.10
2023-04-07T03:16:47.402Z,41.47
2023-04-07T03:19:16.879Z,40.27
2023-04-07T03:21:48.452Z,38.77
2023-04-07T03:24:20.150Z,38.20
2023-04-07T03:26:48.875Z,38.77
2023-04-07T03:29:42.343Z,38.57
2023-04-07T03:32:12.553Z,38.93
2023-04-07T03:34:41.858Z,47.23
2023-04-07T03:37:13.219Z,42.07
2023-04-07T03:42:43.184Z,38.30
2023-04-07T03:45:13.629Z,41.80
2023-04-07T03:47:48.689Z,39.00
2023-04-07T03:50:19.035Z,37.13
2023-04-07T03:53:05.142Z,41.33
2023-04-07T03:55:34.552Z,39.67
2023-04-07T03:58:10.027Z,38.63
2023-04-07T04:00:40.193Z,37.27
2023-04-07T04:03:11.303Z,38.70
2023-04-07T04:05:48.454Z,37.30
2023-04-07T04:08:21.576Z,39.73
2023-04-07T04:10:50.681Z,39.10
2023-04-07T04:13:20.117Z,39.83
2023-04-07T04:15:49.327Z,42.03
2023-04-07T04:18:21.696Z,40.30
2023-04-07T04:20:50.490Z,36.03
2023-04-07T04:23:20.053Z,39.53
2023-04-07T04:25:50.089Z,39.70
2023-04-07T04:28:20.293Z,36.53
2023-04-07T04:30:49.124Z,39.17
2023-04-07T04:33:20.962Z,41.85
2023-04-07T04:35:56.693Z,40.43
2023-04-07T04:38:26.969Z,43.70
2023-04-07T04:41:23.654Z,39.10
2023-04-07T04:43:52.997Z,39.40
2023-04-07T04:46:28.391Z,39.57
2023-04-07T04:48:57.564Z,36.00
2023-04-07T04:51:27.512Z,39.37
2023-04-07T04:54:06.477Z,33.50
2023-04-07T04:56:36.926Z,36.03
2023-04-07T04:59:06.275Z,36.53
2023-04-07T05:01:41.788Z,36.33
2023-04-07T05:04:13.768Z,36.63
2023-04-07T05:06:47.633Z,36.67
2023-04-07T05:09:20.583Z,35.33
2023-04-07T05:11:49.898Z,37.90
2023-04-07T05:14:21.941Z,31.93
2023-04-07T05:16:56.457Z,35.83
2023-04-07T05:19:29.143Z,33.03
2023-04-07T05:22:02.544Z,31.67
2023-04-07T05:24:34.386Z,36.03
2023-04-07T05:27:03.949Z,42.20
2023-04-07T05:29:34.653Z,38.33
2023-04-07T05:32:06.156Z,35.53
2023-04-07T05:34:35.133Z,35.53
2023-04-07T05:37:05.281Z,35.50
2023-04-07T05:39:33.960Z,37.80
2023-04-07T05:42:06.336Z,35.43
2023-04-07T05:44:36.030Z,39.47
2023-04-07T05:47:08.621Z,33.33
2023-04-07T05:49:40.421Z,31.70
2023-04-07T05:52:09.772Z,37.20
2023-04-07T05:54:44.859Z,37.60
2023-04-07T05:57:14.435Z,33.83
2023-04-07T05:59:46.783Z,31.07
2023-04-07T06:02:15.903Z,38.83
2023-04-07T06:04:47.867Z,37.20
2023-04-07T06:07:20.988Z,36.90
2023-04-07T06:09:49.982Z,31.67
2023-04-07T06:12:21.235Z,33.53
2023-04-07T06:14:54.043Z,31.40
2023-04-07T06:17:24.113Z,34.53
2023-04-07T06:19:52.919Z,36.27
2023-04-07T06:22:21.873Z,32.40
2023-04-07T06:24:50.605Z,32.50
2023-04-07T06:27:21.131Z,31.50
2023-04-07T06:29:50.034Z,36.40
2023-04-07T06:32:21.645Z,33.03
2023-04-07T06:34:50.573Z,30.43
2023-04-07T06:37:20.494Z,29.63
2023-04-07T06:39:49.548Z,31.90
2023-04-07T06:42:19.133Z,29.50
2023-04-07T06:44:54.435Z,31.20
2023-04-07T06:47:23.650Z,29.23
2023-04-07T06:49:52.423Z,30.20
2023-04-07T06:52:22.100Z,31.77
2023-04-07T06:54:51.121Z,27.07
2023-04-07T06:57:21.569Z,32.87
2023-04-07T06:59:50.667Z,35.47
2023-04-07T07:02:21.076Z,30.57
2023-04-07T07:04:51.034Z,25.70
2023-04-07T07:07:22.533Z,25.90
2023-04-07T07:09:51.388Z,30.57
2023-04-07T07:12:22.816Z,31.30
2023-04-07T07:14:51.769Z,31.50
2023-04-07T07:17:23.139Z,30.00
2023-04-07T07:19:51.974Z,31.80
2023-04-07T07:22:23.361Z,29.07
2023-04-07T07:24:52.705Z,31.90
2023-04-07T07:27:23.027Z,31.20
2023-04-07T07:29:51.837Z,26.13
2023-04-07T07:32:23.006Z,33.00
2023-04-07T07:34:51.856Z,25.07
2023-04-07T07:37:21.952Z,30.17
2023-04-07T07:39:52.475Z,27.93
2023-04-07T07:42:21.550Z,28.40
2023-04-07T07:44:50.450Z,27.37
2023-04-07T07:47:20.331Z,26.40
2023-04-07T07:49:50.172Z,26.63
2023-04-07T07:52:21.418Z,29.53
2023-04-07T07:54:51.253Z,28.03
2023-04-07T07:57:22.997Z,29.57
2023-04-07T07:59:51.884Z,30.13
2023-04-07T08:02:30.392Z,30.97
2023-04-07T08:05:00.731Z,33.73
2023-04-07T08:07:30.229Z,29.43
2023-04-07T08:10:01.559Z,29.10
2023-04-07T08:12:30.612Z,25.67
2023-04-07T08:14:59.923Z,29.70
2023-04-07T08:17:28.774Z,29.07
2023-04-07T08:19:57.768Z,26.20
2023-04-07T08:22:26.771Z,27.17
2023-04-07T08:24:55.550Z,23.97
2023-04-07T08:27:24.666Z,22.73
2023-04-07T08:30:02.004Z,20.90
2023-04-07T08:32:37.247Z,23.77
2023-04-07T08:35:06.807Z,23.43
2023-04-07T08:37:40.691Z,30.97
2023-04-07T08:40:11.752Z,24.87
2023-04-07T08:42:43.678Z,23.73
2023-04-07T08:45:13.842Z,20.40
2023-04-07T08:47:44.412Z,23.77
2023-04-07T08:50:20.309Z,16.63
2023-04-07T08:52:55.251Z,19.10
2023-04-07T08:55:27.421Z,23.65
2023-04-07T08:58:00.819Z,20.07
2023-04-07T09:00:32.160Z,22.07
2023-04-07T09:03:05.136Z,24.03
2023-04-07T09:05:34.769Z,22.90
2023-04-07T09:08:04.164Z,20.43
2023-04-07T09:10:33.146Z,22.00
2023-04-07T09:13:03.348Z,19.43
2023-04-07T09:15:32.296Z,20.57
2023-04-07T09:18:04.593Z,22.40
2023-04-07T09:21:02.142Z,23.03
2023-04-07T09:23:34.450Z,21.10
2023-04-07T09:26:29.160Z,18.80
2023-04-07T09:29:01.040Z,22.10
2023-04-07T09:31:45.553Z,21.63
2023-04-07T09:36:56.609Z,19.90
2023-04-07T09:39:26.008Z,21.70
2023-04-07T09:41:55.089Z,23.30
2023-04-07T09:44:25.014Z,19.93
2023-04-07T09:46:55.938Z,17.60
2023-04-07T09:49:30.453Z,18.07
2023-04-07T09:52:04.638Z,20.13
2023-04-07T09:54:37.041Z,17.20
2023-04-07T09:57:08.481Z,19.00
2023-04-07T09:59:39.565Z,20.83
2023-04-07T10:02:09.267Z,19.00
2023-04-07T10:04:40.570Z,19.33
2023-04-07T10:07:09.841Z,23.50
2023-04-07T10:09:38.678Z,22.50
2023-04-07T10:12:08.115Z,18.63
2023-04-07T10:14:40.372Z,21.70
2023-04-07T10:17:09.933Z,21.53
2023-04-07T10:19:39.330Z,22.90
2023-04-07T10:22:08.549Z,20.27
2023-04-07T10:24:54.922Z,20.23
2023-04-07T10:27:29.498Z,24.00
2023-04-07T10:30:05.253Z,23.43
2023-04-07T10:32:47.625Z,21.63
2023-04-07T10:35:19.593Z,21.27
2023-04-07T10:38:27.446Z,23.10
2023-04-07T10:40:57.678Z,21.17
2023-04-07T10:43:41.589Z,22.10
2023-04-07T10:46:17.193Z,17.27
2023-04-07T10:49:12.869Z,20.03
2023-04-07T10:51:41.890Z,20.87
2023-04-07T10:54:21.693Z,17.07
2023-04-07T10:57:12.602Z,20.97
2023-04-07T11:00:04.051Z,15.40
2023-04-07T11:02:43.042Z,14.87
2023-04-07T11:05:23.997Z,16.80
2023-04-07T11:08:02.128Z,16.83
2023-04-07T11:10:31.129Z,18.30
2023-04-07T11:13:02.939Z,16.40
2023-04-07T11:15:33.540Z,19.47
2023-04-07T11:18:17.488Z,18.17
2023-04-07T11:20:52.643Z,20.20
2023-04-07T11:23:24.953Z,15.60
2023-04-07T11:26:01.570Z,15.07
2023-04-07T11:28:33.648Z,12.20
2023-04-07T11:31:02.531Z,14.67
2023-04-07T11:33:34.610Z,18.07
2023-04-07T11:36:04.546Z,18.23
2023-04-07T11:38:38.873Z,15.73
2023-04-07T11:41:18.730Z,21.13
2023-04-07T11:44:08.006Z,16.47
2023-04-07T11:46:39.306Z,15.43
2023-04-07T11:49:16.184Z,15.80
2023-04-07T11:51:46.601Z,16.30
2023-04-07T11:54:15.880Z,16.17
2023-04-07T11:56:47.042Z,18.63
2023-04-07T11:59:26.456Z,19.13
2023-04-07T12:02:00.044Z,19.07
2023-04-07T12:04:29.817Z,18.23
2023-04-07T12:07:09.169Z,14.13
2023-04-07T12:09:38.665Z,14.70
2023-04-07T12:12:10.056Z,14.97
2023-04-07T12:14:41.393Z,13.00
2023-04-07T12:17:27.814Z,14.03
2023-04-07T12:20:00.513Z,11.73
2023-04-07T12:22:29.792Z,13.07
2023-04-07T12:24:58.669Z,14.63
2023-04-07T12:27:41.690Z,19.03
2023-04-07T12:30:13.532Z,18.10
2023-04-07T12:32:42.687Z,17.40
2023-04-07T12:35:11.647Z,16.50
2023-04-07T12:37:43.724Z,12.70
2023-04-07T12:40:17.330Z,17.47
2023-04-07T12:42:46.665Z,16.50
2023-04-07T12:45:15.813Z,15.70
2023-04-07T12:47:46.264Z,19.77
2023-04-07T12:50:26.353Z,17.17
2023-04-07T12:52:55.329Z,17.80
2023-04-07T12:55:24.546Z,12.27
2023-04-07T12:57:55.629Z,8.00
2023-04-07T13:00:26.736Z,5.43
2023-04-07T13:02:56.048Z,5.70
2023-04-07T13:05:27.870Z,3.97
2023-04-07T13:07:56.826Z,5.00
2023-04-07T13:10:25.922Z,6.27
2023-04-07T13:12:55.290Z,5.10
2023-04-07T13:15:24.214Z,6.40
2023-04-07T13:17:53.675Z,4.40
2023-04-07T13:20:23.122Z,5.27
2023-04-07T13:23:03.671Z,5.03
2023-04-07T13:25:37.288Z,4.70
2023-04-07T13:28:06.788Z,13.65
2023-04-07T13:30:35.821Z,6.63
2023-04-07T13:33:06.868Z,5.23
2023-04-07T13:35:36.018Z,5.50
2023-04-07T13:38:09.021Z,5.27
2023-04-07T13:40:38.199Z,4.30
2023-04-07T13:43:07.383Z,4.70
2023-04-07T13:45:38.806Z,4.40
2023-04-07T13:48:07.878Z,6.73
2023-04-07T13:50:39.114Z,4.93
2023-04-07T13:53:08.177Z,4.57
2023-04-07T13:55:37.264Z,4.80
2023-04-07T13:58:06.942Z,5.53
2023-04-07T14:00:39.703Z,5.30
2023-04-07T14:03:13.116Z,5.20
2023-04-07T14:05:42.189Z,16.42
2023-04-07T14:08:11.080Z,16.67
2023-04-07T14:10:43.007Z,14.47
2023-04-07T14:13:11.859Z,11.23
2023-04-07T14:15:42.184Z,7.67
2023-04-07T14:18:14.021Z,5.97
2023-04-07T14:20:43.229Z,5.37
2023-04-07T14:23:14.022Z,7.03
2023-04-07T14:25:45.722Z,8.70
2023-04-07T14:28:14.732Z,7.50
2023-04-07T14:30:46.910Z,7.93
2023-04-07T14:33:19.887Z,6.50
2023-04-07T14:35:52.490Z,5.90
2023-04-07T14:38:25.722Z,5.53
2023-04-07T14:40:54.725Z,5.30
2023-04-07T14:43:24.336Z,6.20
2023-04-07T14:45:55.706Z,7.30
2023-04-07T14:48:24.560Z,4.10
2023-04-07T14:51:02.503Z,7.13
2023-04-07T14:53:43.285Z,6.67
2023-04-07T14:56:27.716Z,6.17
2023-04-07T14:58:56.814Z,6.90
2023-04-07T15:01:33.335Z,7.17
2023-04-07T15:04:02.620Z,7.67
2023-04-07T15:06:31.767Z,7.03
2023-04-07T15:09:00.584Z,6.57
2023-04-07T15:11:29.753Z,7.57
2023-04-07T15:14:00.220Z,5.27
2023-04-07T15:16:30.246Z,6.30
2023-04-07T15:19:05.540Z,7.23
2023-04-07T15:21:34.330Z,7.57
2023-04-07T15:24:05.370Z,8.73
2023-04-07T15:26:34.638Z,7.83
2023-04-07T15:29:03.865Z,5.77
2023-04-07T15:31:32.972Z,7.90
2023-04-07T15:34:01.960Z,8.40
2023-04-07T15:36:31.115Z,8.57
2023-04-07T15:39:04.267Z,8.60
2023-04-07T15:41:34.333Z,7.15
2023-04-07T15:44:04.080Z,7.10
2023-04-07T15:46:33.140Z,7.60
2023-04-07T15:49:02.029Z,9.33
2023-04-07T15:51:50.785Z,7.75
2023-04-07T15:54:24.675Z,10.43
2023-04-07T15:56:53.838Z,9.80
2023-04-07T15:59:26.301Z,6.57
2023-04-07T16:01:55.336Z,7.13
2023-04-07T16:04:25.960Z,6.70
2023-04-07T16:06:55.996Z,8.70
2023-04-07T16:09:25.258Z,7.63
2023-04-07T16:11:55.236Z,10.27
2023-04-07T16:14:28.314Z,6.50
2023-04-07T16:16:59.151Z,6.77
2023-04-07T16:19:30.967Z,8.80
2023-04-07T16:22:00.160Z,7.63
2023-04-07T16:24:29.397Z,7.97
2023-04-07T16:27:03.569Z,9.60
2023-04-07T16:29:35.947Z,7.20
2023-04-07T16:32:05.142Z,7.53
2023-04-07T16:34:34.875Z,7.53
2023-04-07T16:37:05.125Z,7.20
2023-04-07T16:39:34.329Z,6.53
2023-04-07T16:42:07.075Z,8.25
2023-04-07T16:44:38.299Z,6.70
2023-04-07T16:47:08.210Z,8.50
2023-04-07T16:49:43.201Z,9.30
2023-04-07T16:52:12.401Z,7.10
2023-04-07T16:54:41.466Z,8.47
2023-04-07T16:57:11.610Z,9.17
2023-04-07T16:59:43.469Z,7.37
2023-04-07T17:02:15.724Z,6.00
2023-04-07T17:04:47.555Z,5.77
2023-04-07T17:07:17.260Z,7.60
2023-04-07T17:09:48.641Z,6.60
2023-04-07T17:12:17.841Z,7.17
2023-04-07T17:14:48.935Z,6.70
2023-04-07T17:17:17.870Z,9.70
2023-04-07T17:19:52.666Z,6.43
2023-04-07T17:22:24.447Z,8.23
2023-04-07T17:24:54.300Z,6.93
2023-04-07T17:27:27.651Z,10.73
2023-04-07T17:29:59.375Z,8.23
2023-04-07T17:32:31.205Z,6.63
2023-04-07T17:35:05.372Z,7.90
2023-04-07T17:37:34.308Z,10.50
2023-04-07T17:40:05.615Z,9.70
2023-04-07T17:45:18.386Z,9.40
2023-04-07T17:50:34.973Z,10.28
2023-04-07T17:53:03.774Z,7.60
2023-04-07T17:55:33.028Z,7.60
2023-04-07T17:58:01.949Z,10.50
2023-04-07T18:00:31.349Z,9.63
2023-04-07T18:03:03.902Z,9.37
2023-04-07T18:05:33.393Z,8.17
2023-04-07T18:08:05.267Z,9.50
2023-04-07T18:10:34.702Z,11.00
2023-04-07T18:13:05.171Z,8.60
2023-04-07T18:15:34.444Z,8.77
2023-04-07T18:18:03.318Z,11.40
2023-04-07T18:20:36.241Z,9.93
2023-04-07T18:23:05.723Z,10.70
2023-04-07T18:25:36.096Z,8.80
2023-04-07T18:28:06.160Z,8.33
2023-04-07T18:30:37.094Z,7.95
2023-04-07T18:33:06.366Z,11.03
2023-04-07T18:35:35.722Z,10.30
2023-04-07T18:38:04.925Z,11.13
2023-04-07T18:40:34.823Z,11.93
2023-04-07T18:43:04.191Z,11.27
2023-04-07T18:45:36.332Z,10.33
2023-04-07T18:48:05.984Z,11.30
2023-04-07T18:50:34.865Z,10.13
2023-04-07T18:53:03.794Z,10.17
2023-04-07T18:55:32.651Z,11.03
2023-04-07T18:58:03.365Z,13.10
2023-04-07T19:00:32.466Z,22.83
2023-04-07T19:03:04.078Z,14.37
2023-04-07T19:08:07.069Z,8.53
2023-04-07T19:10:38.828Z,10.27
2023-04-07T19:13:07.843Z,9.67
2023-04-07T19:15:38.814Z,9.60
2023-04-07T19:18:07.684Z,9.63
2023-04-07T19:20:36.661Z,9.23
2023-04-07T19:23:05.660Z,10.30
2023-04-07T19:25:37.432Z,12.80
2023-04-07T19:28:06.922Z,9.03
2023-04-07T19:30:36.059Z,10.27
2023-04-07T19:33:05.809Z,12.27
2023-04-07T19:35:37.230Z,12.27
2023-04-07T19:38:06.798Z,11.50
2023-04-07T19:40:37.036Z,12.17
2023-04-07T19:43:08.513Z,11.40
2023-04-07T19:48:09.534Z,10.73
2023-04-07T19:50:47.712Z,15.53
2023-04-07T19:53:17.673Z,11.83
2023-04-07T19:55:58.388Z,11.57
2023-04-07T19:58:28.475Z,9.17
2023-04-07T20:03:42.960Z,11.07
2023-04-07T20:06:20.558Z,16.10
2023-04-07T20:08:51.647Z,11.03
2023-04-07T20:11:21.571Z,11.70
2023-04-07T20:13:53.597Z,9.67
2023-04-07T20:16:30.720Z,9.47
2023-04-07T20:19:02.657Z,9.73
2023-04-07T20:21:32.394Z,10.43
2023-04-07T20:24:02.184Z,9.47
2023-04-07T20:26:31.443Z,8.00
2023-04-07T20:29:05.431Z,7.47
2023-04-07T20:34:04.453Z,10.57
2023-04-07T20:36:33.352Z,12.00
2023-04-07T20:39:03.570Z,11.20
2023-04-07T20:41:33.441Z,10.17
2023-04-07T20:44:02.847Z,8.23
2023-04-07T20:46:34.856Z,7.77
2023-04-07T20:49:08.410Z,7.77
2023-04-07T20:51:38.521Z,6.43
2023-04-07T20:54:08.404Z,6.20
2023-04-07T20:56:42.457Z,7.93
2023-04-07T20:59:11.320Z,8.07
2023-04-07T21:01:40.493Z,9.30
2023-04-07T21:04:12.307Z,12.63
2023-04-07T21:06:43.497Z,11.28
2023-04-07T21:09:12.344Z,9.93
2023-04-07T21:11:41.135Z,12.50
2023-04-07T21:14:09.943Z,8.97
2023-04-07T21:16:38.817Z,9.20
2023-04-07T21:19:07.856Z,9.77
2023-04-07T21:21:37.918Z,9.60
2023-04-07T21:24:09.831Z,11.00
2023-04-07T21:26:39.805Z,8.80
2023-04-07T21:29:08.653Z,9.70
2023-04-07T21:31:37.672Z,9.47
2023-04-07T21:34:06.773Z,11.87
2023-04-07T21:36:36.684Z,11.90
2023-04-07T21:39:06.837Z,11.73
2023-04-07T21:41:36.748Z,13.93
2023-04-07T21:44:12.082Z,15.70
2023-04-07T21:46:43.479Z,15.63
2023-04-07T21:49:23.214Z,16.70
2023-04-07T21:51:56.401Z,13.87
2023-04-07T21:54:26.837Z,12.27
2023-04-07T21:56:58.860Z,11.03
2023-04-07T21:59:32.132Z,10.17
2023-04-07T22:02:06.636Z,11.63
2023-04-07T22:04:36.851Z,10.57
2023-04-07T22:07:08.421Z,11.40
2023-04-07T22:09:37.184Z,9.37
2023-04-07T22:12:06.000Z,10.27
2023-04-07T22:14:38.535Z,10.50
2023-04-07T22:17:07.702Z,11.93
2023-04-07T22:19:36.556Z,11.40
2023-04-07T22:22:07.750Z,11.47
2023-04-07T22:24:36.721Z,10.37
2023-04-07T22:27:05.512Z,10.87
2023-04-07T22:29:34.309Z,12.47
2023-04-07T22:32:04.481Z,11.83
2023-04-07T22:34:33.477Z,12.93
2023-04-07T22:37:02.247Z,11.40
2023-04-07T22:39:32.667Z,11.67
2023-04-07T22:42:02.212Z,14.10
2023-04-07T22:44:31.202Z,13.50
2023-04-07T22:47:00.286Z,14.50
2023-04-07T22:49:32.275Z,14.97
2023-04-07T22:52:02.409Z,16.03
2023-04-07T22:54:31.501Z,18.87
2023-04-07T22:57:03.624Z,18.50
2023-04-07T22:59:32.397Z,17.67
2023-04-07T23:02:02.574Z,17.20
2023-04-07T23:04:32.925Z,16.73
2023-04-07T23:07:03.409Z,18.47
2023-04-07T23:09:33.447Z,19.87
2023-04-07T23:12:04.049Z,18.90
2023-04-07T23:14:34.702Z,19.20
2023-04-07T23:17:03.747Z,18.93
2023-04-07T23:19:32.759Z,22.20
2023-04-07T23:22:01.694Z,20.00
2023-04-07T23:24:30.488Z,23.43
2023-04-07T23:27:01.499Z,22.10
2023-04-07T23:29:33.615Z,21.90
2023-04-07T23:32:04.310Z,23.47
2023-04-07T23:34:35.547Z,22.13
2023-04-07T23:37:05.776Z,22.40
2023-04-07T23:39:36.328Z,21.53
2023-04-07T23:42:06.248Z,21.87
2023-04-07T23:44:37.717Z,21.27
2023-04-07T23:47:08.733Z,21.33
2023-04-07T23:49:37.872Z,21.67
2023-04-07T23:52:06.571Z,21.77
2023-04-07T23:54:35.354Z,19.13
2023-04-07T23:57:07.008Z,22.57
2023-04-07T23:59:40.671Z,21.60
